Terminal Aerodrome Forecast
Issued by NWS

Current Version | Previous Version | Text Only | Print | Product List | Glossary On
Versions: 1 2 3 4 5 6 7 8 9 10 11 12 13
000
FTUS42 TJSJ 211100
TAFISX
TAF
TISX 211137Z 2112/2212 08007KT P6SM FEW025 SCT035
     FM211500 11011KT P6SM VCSH SCT025 SCT035 SCT050
     FM211800 10009KT P6SM FEW025 SCT035
     FM212300 06006KT P6SM FEW025=

USA.gov is the U.S. government's official web portal to all federal, state and local government web resources and services.